Time;durP1;ratioP1;P1;durP2;ratioP2;P2;SDS_P1;SDS_P2;PMS_P1;PMS_P2;Temp;Humidity;BMP_temperature;BMP_pressure;BME280_temperature;BME280_humidity;BME280_pressure;Samples;Min_cycle;Max_cycle;Signal;HPM_P1;HPM_P2
2023/08/21 00:00:07;;;;;;;14.40;13.10;;;;;;;22.05;74.33;97262.58;108830;1264;22520;-75
2023/08/21 00:02:36;;;;;;;14.90;13.40;;;;;;;22.06;74.36;97260.77;108860;1266;22524;-75
2023/08/21 00:05:05;;;;;;;14.70;13.20;;;;;;;22.05;74.37;97260.41;108840;1266;22975;-75
2023/08/21 00:07:34;;;;;;;14.40;13.10;;;;;;;22.07;74.42;97256.94;108860;1266;22612;-75
2023/08/21 00:10:02;;;;;;;14.20;12.80;;;;;;;22.05;74.35;97253.17;108871;1271;22526;-75
2023/08/21 00:12:31;;;;;;;13.40;12.20;;;;;;;22.05;74.37;97253.77;108848;1271;22534;-75
2023/08/21 00:14:59;;;;;;;14.60;12.70;;;;;;;22.03;74.29;97252.93;108823;1266;25300;-75
2023/08/21 00:17:27;;;;;;;14.30;12.90;;;;;;;21.99;74.39;97252.11;108831;1264;22581;-75
2023/08/21 00:19:56;;;;;;;14.20;12.90;;;;;;;21.93;74.56;97252.69;108878;1271;25293;-75
2023/08/21 00:22:24;;;;;;;14.30;12.90;;;;;;;21.91;74.77;97253.55;108838;1271;25345;-75
2023/08/21 00:24:52;;;;;;;14.50;13.00;;;;;;;21.91;75.06;97252.23;108836;1267;22540;-75
2023/08/21 00:27:21;;;;;;;14.40;13.00;;;;;;;21.93;75.08;97255.23;108890;1264;54903;-75
2023/08/21 00:29:49;;;;;;;14.80;13.40;;;;;;;21.95;75.20;97252.98;108903;1269;22466;-75
2023/08/21 00:32:17;;;;;;;15.60;14.00;;;;;;;21.99;75.30;97255.27;108836;1269;25306;-75
2023/08/21 00:34:46;;;;;;;15.50;14.00;;;;;;;21.99;75.29;97255.35;108919;1269;22520;-75
2023/08/21 00:37:14;;;;;;;15.70;14.10;;;;;;;21.98;75.31;97256.16;108810;1265;50567;-75
2023/08/21 00:39:43;;;;;;;15.90;14.30;;;;;;;22.00;75.32;97250.29;108888;1268;22573;-75
2023/08/21 00:42:11;;;;;;;15.90;14.40;;;;;;;22.00;75.36;97250.14;108904;1266;24240;-75
2023/08/21 00:44:39;;;;;;;14.60;13.10;;;;;;;21.95;75.30;97248.48;108905;1265;22543;-75
2023/08/21 00:47:08;;;;;;;13.90;12.70;;;;;;;21.91;75.45;97250.30;108834;1271;22517;-75
2023/08/21 00:49:38;;;;;;;14.20;12.90;;;;;;;21.87;75.45;97253.19;108806;1266;22526;-75
2023/08/21 00:52:09;;;;;;;14.50;13.10;;;;;;;21.84;75.61;97255.04;108892;1271;22516;-75
2023/08/21 00:54:38;;;;;;;14.30;12.70;;;;;;;21.86;75.63;97252.24;108839;1266;22531;-76
2023/08/21 00:57:07;;;;;;;14.10;12.80;;;;;;;21.88;75.51;97256.06;108797;1270;37716;-75
2023/08/21 00:59:35;;;;;;;13.30;12.10;;;;;;;21.87;75.50;97252.89;108807;1272;22524;-75
2023/08/21 01:02:04;;;;;;;14.60;13.20;;;;;;;21.85;75.58;97253.89;108832;1272;22521;-75
2023/08/21 01:04:32;;;;;;;14.40;13.10;;;;;;;21.84;75.70;97257.35;108839;1272;22555;-75
2023/08/21 01:07:00;;;;;;;15.30;12.90;;;;;;;21.82;75.76;97258.26;108847;1271;22538;-75
2023/08/21 01:09:36;;;;;;;15.10;13.50;;;;;;;21.80;75.83;97257.10;108803;1269;24195;-75
2023/08/21 01:12:17;;;;;;;14.50;13.10;;;;;;;21.75;75.70;97254.80;108791;1271;22543;-75
2023/08/21 01:14:54;;;;;;;14.70;13.20;;;;;;;21.71;75.92;97258.45;108862;1266;22568;-75
2023/08/21 01:17:23;;;;;;;14.90;13.50;;;;;;;21.70;76.07;97253.14;108890;1265;25373;-75
2023/08/21 01:19:53;;;;;;;14.50;13.20;;;;;;;21.59;76.23;97251.48;108825;1272;22528;-75
2023/08/21 01:22:20;;;;;;;;;;;;;;;21.52;76.51;97254.61;108842;1271;22494;-75
2023/08/21 01:24:48;;;;;;;15.30;13.80;;;;;;;21.50;76.95;97254.15;108867;1266;25487;-75
2023/08/21 01:27:17;;;;;;;16.60;15.00;;;;;;;21.48;77.02;97253.16;108874;1272;24276;-75
2023/08/21 01:29:45;;;;;;;15.50;13.90;;;;;;;21.47;77.12;97254.54;108931;1272;25338;-75
2023/08/21 01:32:21;;;;;;;16.10;14.60;;;;;;;21.47;77.15;97251.44;108904;1263;22521;-75
2023/08/21 01:34:51;;;;;;;15.50;14.10;;;;;;;21.48;77.25;97247.92;108831;1263;22534;-75
2023/08/21 01:37:20;;;;;;;14.80;13.50;;;;;;;21.50;77.40;97248.45;108798;1266;25337;-75
2023/08/21 01:39:49;;;;;;;15.50;14.00;;;;;;;21.50;77.31;97242.76;108869;1266;22548;-75
2023/08/21 01:42:17;;;;;;;14.70;13.20;;;;;;;21.50;77.44;97243.20;108908;1271;22517;-75
2023/08/21 01:44:46;;;;;;;14.90;13.50;;;;;;;21.50;77.40;97246.98;108905;1271;23419;-75
2023/08/21 01:47:14;;;;;;;14.30;13.10;;;;;;;21.51;77.35;97242.63;108931;1272;22528;-75
2023/08/21 01:49:43;;;;;;;14.10;12.80;;;;;;;21.52;77.32;97241.20;108881;1264;22672;-74
2023/08/21 01:52:11;;;;;;;14.40;13.10;;;;;;;21.53;77.21;97239.79;108846;1271;22641;-75
2023/08/21 01:54:39;;;;;;;14.20;12.90;;;;;;;21.55;77.16;97241.39;108893;1264;22533;-75
2023/08/21 01:57:07;;;;;;;14.60;13.30;;;;;;;21.54;77.21;97239.96;108824;1271;22520;-75
2023/08/21 01:59:36;;;;;;;15.10;13.70;;;;;;;21.52;77.16;97238.73;108841;1272;22542;-74
2023/08/21 02:02:04;;;;;;;15.40;14.00;;;;;;;21.52;77.33;97239.36;108899;1262;22521;-75
2023/08/21 02:04:33;;;;;;;14.80;13.30;;;;;;;21.51;77.23;97238.56;108957;1271;23363;-75
2023/08/21 02:07:01;;;;;;;15.30;13.80;;;;;;;21.50;77.31;97235.13;108862;1266;22522;-75
2023/08/21 02:09:29;;;;;;;15.00;13.60;;;;;;;21.49;77.26;97234.27;108893;1269;22539;-75
2023/08/21 02:11:58;;;;;;;15.70;14.20;;;;;;;21.49;77.29;97234.02;108878;1272;22550;-75
2023/08/21 02:14:26;;;;;;;14.40;13.10;;;;;;;21.48;77.20;97233.05;108889;1261;22550;-75
2023/08/21 02:16:55;;;;;;;15.50;14.00;;;;;;;21.47;77.41;97229.94;108858;1269;26392;-75
2023/08/21 02:19:23;;;;;;;14.50;13.20;;;;;;;21.46;77.44;97227.98;108820;1271;22527;-75
2023/08/21 02:21:51;;;;;;;14.30;13.00;;;;;;;21.45;77.38;97230.56;108826;1271;25249;-75
2023/08/21 02:24:19;;;;;;;15.60;14.20;;;;;;;21.44;77.46;97230.33;108959;1271;22556;-75
2023/08/21 02:26:48;;;;;;;14.10;12.70;;;;;;;21.46;77.42;97226.14;108812;1268;39412;-74
2023/08/21 02:29:16;;;;;;;14.90;13.40;;;;;;;21.49;77.45;97225.83;108835;1264;22536;-75
2023/08/21 02:31:44;;;;;;;14.70;13.40;;;;;;;21.49;77.49;97227.25;108859;1271;22536;-75
2023/08/21 02:34:12;;;;;;;14.80;13.40;;;;;;;21.50;77.50;97227.42;108811;1271;22561;-75
2023/08/21 02:36:41;;;;;;;14.20;12.90;;;;;;;21.50;77.40;97228.56;108818;1272;24052;-75
2023/08/21 02:39:09;;;;;;;14.30;12.90;;;;;;;21.51;77.46;97233.30;108720;1266;22546;-75
2023/08/21 02:41:37;;;;;;;13.60;12.40;;;;;;;21.52;77.40;97229.78;108759;1272;23854;-75
2023/08/21 02:44:06;;;;;;;14.70;13.40;;;;;;;21.52;77.34;97233.73;108671;1272;25429;-75
2023/08/21 02:46:36;;;;;;;14.60;13.10;;;;;;;21.54;77.40;97232.58;108678;1272;39585;-75
2023/08/21 02:49:04;;;;;;;13.70;12.40;;;;;;;21.56;77.21;97229.70;108712;1266;25387;-75
2023/08/21 02:51:32;;;;;;;13.40;12.20;;;;;;;21.59;77.15;97228.48;108727;1266;22524;-75
2023/08/21 02:54:01;;;;;;;;;;;;;;;21.61;77.09;97225.41;108731;1272;22504;-75
2023/08/21 02:56:29;;;;;;;13.30;11.90;;;;;;;21.62;76.94;97226.21;108691;1266;22563;-75
2023/08/21 02:58:57;;;;;;;13.50;12.20;;;;;;;21.63;77.04;97224.40;108702;1272;22536;-75
2023/08/21 03:01:26;;;;;;;13.50;12.20;;;;;;;21.63;76.69;97220.69;108765;1272;22565;-75
2023/08/21 03:03:54;;;;;;;13.70;12.30;;;;;;;21.63;76.71;97222.23;108765;1272;25274;-75
2023/08/21 03:06:22;;;;;;;13.50;12.20;;;;;;;21.62;76.60;97221.83;108686;1266;22529;-75
2023/08/21 03:08:50;;;;;;;14.00;12.60;;;;;;;21.60;76.51;97221.39;108728;1266;22572;-75
2023/08/21 03:11:19;;;;;;;14.00;12.70;;;;;;;21.61;76.58;97222.02;108728;1266;22535;-75
2023/08/21 03:13:47;;;;;;;14.40;13.00;;;;;;;21.61;76.50;97220.17;108719;1266;25401;-75
2023/08/21 03:16:15;;;;;;;13.50;12.20;;;;;;;21.61;76.64;97223.09;108650;1272;22544;-75
2023/08/21 03:18:56;;;;;;;14.50;13.10;;;;;;;21.61;76.51;97222.27;108733;1272;22531;-75
2023/08/21 03:21:25;;;;;;;14.10;12.80;;;;;;;21.64;76.55;97220.03;108781;1272;22618;-75
2023/08/21 03:23:56;;;;;;;13.30;12.00;;;;;;;21.64;76.42;97219.27;108711;1272;22529;-75
2023/08/21 03:26:25;;;;;;;14.20;12.70;;;;;;;21.64;76.52;97218.86;108717;1272;25239;-74
2023/08/21 03:28:54;;;;;;;13.00;11.70;;;;;;;21.64;76.52;97216.87;108728;1272;22583;-75
2023/08/21 03:31:24;;;;;;;14.00;12.70;;;;;;;21.63;76.44;97219.77;108772;1270;22546;-75
2023/08/21 03:33:53;;;;;;;13.30;12.00;;;;;;;21.61;76.37;97220.87;108796;1266;22558;-75
2023/08/21 03:36:30;;;;;;;13.20;11.90;;;;;;;21.59;76.25;97225.72;108757;1271;22583;-75
2023/08/21 03:38:59;;;;;;;13.80;12.40;;;;;;;21.55;76.19;97223.23;108846;1266;24415;-75
2023/08/21 03:41:28;;;;;;;14.20;12.70;;;;;;;21.54;76.33;97220.41;108814;1271;25576;-75
2023/08/21 03:43:56;;;;;;;14.10;12.70;;;;;;;21.56;76.41;97216.15;108877;1271;22580;-75
2023/08/21 03:46:26;;;;;;;13.00;11.70;;;;;;;21.56;76.44;97213.69;108748;1271;22060;-75
2023/08/21 03:48:55;;;;;;;14.00;12.60;;;;;;;21.56;76.37;97221.41;108856;1266;22528;-75
2023/08/21 03:51:24;;;;;;;14.10;12.90;;;;;;;21.57;76.45;97219.73;108777;1266;22518;-75
2023/08/21 03:53:53;;;;;;;13.90;12.50;;;;;;;21.58;76.39;97215.36;108820;1267;22545;-75
2023/08/21 03:56:21;;;;;;;15.00;13.40;;;;;;;21.58;76.47;97211.96;108779;1272;22475;-75
2023/08/21 03:58:50;;;;;;;14.40;13.10;;;;;;;21.58;76.46;97210.27;108804;1272;22524;-75
2023/08/21 04:01:18;;;;;;;14.30;13.00;;;;;;;21.59;76.50;97210.39;108828;1269;24375;-75
2023/08/21 04:03:47;;;;;;;13.10;11.80;;;;;;;21.58;76.48;97209.36;108794;1266;22539;-75
2023/08/21 04:06:16;;;;;;;14.70;13.30;;;;;;;21.59;76.57;97212.46;108766;1272;25344;-75
2023/08/21 04:08:45;;;;;;;14.30;13.00;;;;;;;21.61;76.40;97211.66;108775;1272;22490;-75
2023/08/21 04:11:13;;;;;;;13.50;12.30;;;;;;;21.62;76.58;97215.72;108827;1271;22615;-75
2023/08/21 04:13:42;;;;;;;14.20;12.90;;;;;;;21.62;76.43;97215.20;108810;1272;24275;-75
2023/08/21 04:16:12;;;;;;;13.60;12.40;;;;;;;21.66;76.49;97213.70;108700;1272;22534;-75
2023/08/21 04:18:41;;;;;;;14.10;12.70;;;;;;;21.70;76.66;97215.32;108722;1270;22625;-75
2023/08/21 04:21:10;;;;;;;14.90;13.50;;;;;;;21.74;76.67;97215.67;108747;1272;24222;-75
2023/08/21 04:23:40;;;;;;;12.90;11.70;;;;;;;21.78;76.61;97216.64;108659;1273;22544;-75
2023/08/21 04:26:08;;;;;;;14.00;12.70;;;;;;;21.84;76.79;97219.48;108703;1272;23113;-75
2023/08/21 04:28:38;;;;;;;14.40;13.00;;;;;;;21.93;76.79;97221.67;108698;1269;22527;-75
2023/08/21 04:31:09;;;;;;;13.90;12.60;;;;;;;22.06;76.81;97222.86;108704;1266;24211;-75
2023/08/21 04:33:38;;;;;;;14.00;12.60;;;;;;;22.40;77.48;97215.30;108746;1272;22551;-75
2023/08/21 04:36:06;;;;;;;;;;;;;;;22.98;77.78;97214.62;108686;1272;22517;-75
2023/08/21 04:38:37;;;;;;;12.30;11.10;;;;;;;23.61;76.82;97216.65;108719;1269;22523;-75
2023/08/21 04:41:12;;;;;;;13.00;11.90;;;;;;;24.18;75.78;97219.61;108723;1272;22521;-75
2023/08/21 04:43:41;;;;;;;12.70;11.40;;;;;;;24.67;74.48;97219.41;108745;1266;22529;-75
2023/08/21 04:46:10;;;;;;;12.60;11.40;;;;;;;25.00;72.91;97223.96;108714;1272;24262;-75
2023/08/21 04:48:38;;;;;;;;;;;;;;;25.11;71.72;97226.40;108725;1269;22502;-75
2023/08/21 04:51:06;;;;;;;13.10;11.80;;;;;;;25.42;71.68;97222.25;108698;1272;22531;-75
2023/08/21 04:53:35;;;;;;;11.20;10.20;;;;;;;25.81;70.69;97225.52;108720;1272;22524;-75
2023/08/21 04:56:04;;;;;;;13.00;11.60;;;;;;;25.99;69.45;97224.58;108731;1272;22538;-75
2023/08/21 04:58:33;;;;;;;12.00;10.80;;;;;;;26.24;68.61;97222.86;108756;1271;22519;-75
2023/08/21 05:01:02;;;;;;;12.20;11.00;;;;;;;26.26;67.27;97230.12;108736;1272;25253;-75
2023/08/21 05:03:31;;;;;;;11.20;10.20;;;;;;;26.29;66.65;97233.42;108781;1272;22540;-74
2023/08/21 05:06:01;;;;;;;11.50;10.30;;;;;;;26.10;65.57;97235.79;108715;1272;24756;-75
2023/08/21 05:08:30;;;;;;;10.60;9.60;;;;;;;26.05;65.44;97234.40;108643;1266;22515;-75
2023/08/21 05:11:00;;;;;;;11.40;10.40;;;;;;;26.02;64.89;97237.20;108680;1272;22561;-75
2023/08/21 05:13:29;;;;;;;11.90;10.30;;;;;;;26.23;64.84;97239.48;108727;1272;22545;-75
2023/08/21 05:15:59;;;;;;;11.50;10.50;;;;;;;26.34;63.94;97233.38;108668;1269;25409;-76
2023/08/21 05:18:28;;;;;;;11.00;10.00;;;;;;;26.27;63.38;97235.96;108905;1266;22525;-74
2023/08/21 05:20:57;;;;;;;11.40;10.30;;;;;;;26.19;63.11;97236.63;108888;1271;23404;-75
2023/08/21 05:23:26;;;;;;;12.10;10.90;;;;;;;25.99;62.97;97237.39;108876;1267;22521;-76
2023/08/21 05:25:55;;;;;;;10.50;9.50;;;;;;;26.13;63.58;97232.65;108859;1271;22529;-75
2023/08/21 05:28:23;;;;;;;12.10;10.90;;;;;;;26.16;62.83;97229.98;108926;1269;22519;-75
2023/08/21 05:30:52;;;;;;;11.30;10.30;;;;;;;26.11;63.03;97229.20;108877;1264;23251;-76
2023/08/21 05:33:21;;;;;;;12.30;11.10;;;;;;;26.10;62.84;97231.05;108894;1272;22467;-76
2023/08/21 05:35:50;;;;;;;12.80;11.60;;;;;;;26.19;62.80;97228.02;108901;1272;22531;-76
2023/08/21 05:38:18;;;;;;;12.00;10.80;;;;;;;26.30;62.94;97234.23;108890;1271;23115;-76
2023/08/21 05:40:48;;;;;;;11.50;10.50;;;;;;;26.71;63.49;97235.46;108898;1269;22521;-76
2023/08/21 05:43:17;;;;;;;11.80;10.70;;;;;;;27.09;62.40;97232.09;108902;1269;22571;-76
2023/08/21 05:45:45;;;;;;;;;;;;;;;27.00;61.27;97235.32;108860;1264;22530;-76
2023/08/21 05:48:13;;;;;;;11.40;10.30;;;;;;;26.79;61.13;97238.30;108877;1269;22585;-77
2023/08/21 05:50:42;;;;;;;11.10;10.00;;;;;;;26.96;61.96;97240.46;108845;1272;24366;-78
2023/08/21 05:53:10;;;;;;;11.60;10.40;;;;;;;27.25;61.18;97237.17;108889;1266;22528;-76
2023/08/21 05:55:39;;;;;;;10.90;9.90;;;;;;;27.30;61.19;97236.55;108864;1271;25486;-76
2023/08/21 05:58:07;;;;;;;11.00;10.00;;;;;;;27.33;60.53;97242.25;108835;1272;25418;-76
2023/08/21 06:00:36;;;;;;;11.90;10.90;;;;;;;27.32;60.09;97244.02;108881;1269;22526;-77
2023/08/21 06:03:06;;;;;;;11.80;10.70;;;;;;;27.07;59.99;97244.67;108897;1271;22990;-76
2023/08/21 06:05:34;;;;;;;11.40;10.30;;;;;;;27.09;60.07;97242.52;108837;1268;22618;-76
2023/08/21 06:08:02;;;;;;;11.70;10.60;;;;;;;27.04;60.29;97237.55;108820;1266;25245;-77
2023/08/21 06:10:33;;;;;;;11.30;10.20;;;;;;;27.34;61.15;97235.55;108883;1272;22927;-76
2023/08/21 06:13:01;;;;;;;11.90;10.70;;;;;;;27.60;60.49;97229.92;108886;1272;23861;-77
2023/08/21 06:15:30;;;;;;;10.70;9.60;;;;;;;27.63;59.96;97231.52;108837;1271;22524;-76
2023/08/21 06:17:58;;;;;;;12.40;10.80;;;;;;;27.43;59.25;97231.85;108892;1269;22572;-76
2023/08/21 06:20:27;;;;;;;11.00;9.70;;;;;;;27.16;59.73;97233.88;108938;1272;22572;-76
2023/08/21 06:22:55;;;;;;;11.30;10.30;;;;;;;27.16;60.01;97234.04;108886;1272;22521;-76
2023/08/21 06:25:23;;;;;;;11.90;10.90;;;;;;;27.03;59.70;97240.55;108852;1271;24372;-76
2023/08/21 06:27:52;;;;;;;12.20;10.50;;;;;;;27.09;60.52;97240.34;108893;1272;24468;-76
2023/08/21 06:30:20;;;;;;;11.40;10.30;;;;;;;27.26;60.53;97244.88;108878;1272;22603;-76
2023/08/21 06:32:48;;;;;;;11.70;10.70;;;;;;;27.31;60.58;97246.66;108815;1271;22602;-76
2023/08/21 06:35:17;;;;;;;11.10;10.10;;;;;;;27.35;60.25;97244.84;108858;1272;22623;-76
2023/08/21 06:37:46;;;;;;;10.80;9.80;;;;;;;27.25;60.13;97242.70;108840;1264;23747;-75
2023/08/21 06:40:14;;;;;;;11.30;10.20;;;;;;;27.21;60.24;97250.36;108900;1272;25284;-75
2023/08/21 06:42:43;;;;;;;11.50;10.30;;;;;;;27.29;59.84;97248.80;108854;1272;22524;-75
2023/08/21 06:45:11;;;;;;;11.60;10.50;;;;;;;27.29;60.21;97250.98;108879;1271;22513;-76
2023/08/21 06:47:40;;;;;;;11.80;10.30;;;;;;;27.46;60.05;97251.96;108808;1272;22571;-76
2023/08/21 06:50:10;;;;;;;12.70;10.90;;;;;;;27.39;59.50;97249.85;109459;1272;23386;-76
2023/08/21 06:52:38;;;;;;;10.90;9.80;;;;;;;27.32;59.63;97248.70;108873;1272;22537;-76
2023/08/21 06:55:08;;;;;;;10.90;9.80;;;;;;;27.34;59.87;97246.77;108864;1272;25372;-76
2023/08/21 06:57:37;;;;;;;10.90;9.90;;;;;;;27.40;59.94;97243.88;108837;1271;30976;-76
2023/08/21 07:00:08;;;;;;;11.10;10.10;;;;;;;27.54;59.49;97246.43;108884;1271;22644;-76
2023/08/21 07:02:37;;;;;;;11.10;10.10;;;;;;;27.34;59.32;97249.10;108892;1272;22514;-76
2023/08/21 07:05:07;;;;;;;11.00;9.90;;;;;;;27.11;59.69;97253.65;108901;1271;22620;-76
2023/08/21 07:07:36;;;;;;;12.10;10.90;;;;;;;27.19;60.37;97259.98;108848;1272;32023;-75
2023/08/21 07:10:05;;;;;;;11.20;10.20;;;;;;;27.27;60.16;97259.44;108866;1271;25192;-76
2023/08/21 07:12:34;;;;;;;11.30;10.30;;;;;;;27.33;60.11;97263.09;108918;1272;24331;-76
2023/08/21 07:15:03;;;;;;;11.70;10.60;;;;;;;27.43;60.60;97258.06;108858;1265;22525;-76
2023/08/21 07:17:31;;;;;;;11.60;10.60;;;;;;;27.81;60.85;97258.88;108817;1266;23865;-76
2023/08/21 07:19:59;;;;;;;11.90;10.50;;;;;;;27.94;59.90;97256.89;108873;1269;26427;-76
2023/08/21 07:22:28;;;;;;;11.50;10.20;;;;;;;27.74;59.70;97252.98;108856;1268;22524;-76
2023/08/21 07:24:57;;;;;;;12.20;10.50;;;;;;;27.55;59.95;97253.60;108916;1272;22515;-76
2023/08/21 07:27:28;;;;;;;11.40;10.30;;;;;;;27.43;60.07;97252.02;108619;1262;286520;-76
2023/08/21 07:29:57;;;;;;;11.70;10.50;;;;;;;27.33;60.16;97256.40;108927;1263;25476;-76
2023/08/21 07:32:25;;;;;;;11.40;10.30;;;;;;;27.30;61.07;97263.13;108860;1264;22623;-76
2023/08/21 07:34:55;;;;;;;11.10;10.00;;;;;;;27.55;60.85;97266.38;108863;1268;25895;-75
2023/08/21 07:37:24;;;;;;;10.50;9.60;;;;;;;27.90;60.98;97258.16;108924;1267;22525;-76
2023/08/21 07:39:56;;;;;;;11.50;10.40;;;;;;;28.03;60.39;97263.91;108900;1272;23186;-75
2023/08/21 07:42:25;;;;;;;12.50;11.20;;;;;;;27.99;60.22;97265.73;108916;1272;22683;-75
2023/08/21 07:44:54;;;;;;;11.90;10.60;;;;;;;27.95;60.20;97265.94;108891;1271;25481;-76
2023/08/21 07:47:23;;;;;;;12.40;11.30;;;;;;;27.89;60.34;97266.89;108864;1272;22525;-76
2023/08/21 07:49:52;;;;;;;10.90;9.80;;;;;;;27.79;60.23;97266.49;108843;1269;22518;-75
2023/08/21 07:52:21;;;;;;;12.50;11.10;;;;;;;27.71;60.32;97271.39;108860;1269;22630;-75
2023/08/21 07:54:53;;;;;;;10.80;9.80;;;;;;;27.62;60.84;97269.25;108821;1272;22500;-76
2023/08/21 07:57:22;;;;;;;12.00;10.90;;;;;;;27.40;61.12;97271.11;108866;1271;22527;-75
2023/08/21 07:59:51;;;;;;;14.30;12.90;;;;;;;27.28;61.53;97270.25;108856;1264;22521;-75
2023/08/21 08:02:19;;;;;;;12.60;11.30;;;;;;;27.28;61.95;97270.88;108831;1266;22521;-76
2023/08/21 08:04:48;;;;;;;12.30;11.20;;;;;;;27.24;62.15;97270.92;108820;1267;22535;-76
2023/08/21 08:07:16;;;;;;;12.90;11.50;;;;;;;27.23;62.71;97268.65;108787;1272;25307;-75
2023/08/21 08:09:46;;;;;;;12.10;11.00;;;;;;;27.21;62.72;97270.35;108878;1271;24335;-75
2023/08/21 08:12:16;;;;;;;12.60;11.30;;;;;;;27.20;63.00;97270.96;108827;1268;23805;-75
2023/08/21 08:14:44;;;;;;;12.70;11.40;;;;;;;27.27;63.11;97270.64;108851;1272;22541;-76
2023/08/21 08:17:13;;;;;;;11.70;10.60;;;;;;;27.37;63.58;97272.23;108757;1272;23133;-76
2023/08/21 08:19:41;;;;;;;11.90;10.80;;;;;;;27.47;63.45;97270.33;108832;1262;22519;-76
2023/08/21 08:22:10;;;;;;;13.00;11.70;;;;;;;27.45;63.13;97276.38;108859;1264;26475;-76
2023/08/21 08:24:38;;;;;;;12.30;10.80;;;;;;;27.45;63.45;97277.16;108889;1269;22519;-75
2023/08/21 08:27:07;;;;;;;12.40;11.30;;;;;;;27.38;63.26;97278.95;108795;1263;23012;-75
2023/08/21 08:29:35;;;;;;;11.70;10.50;;;;;;;27.34;63.36;97281.94;108918;1269;22501;-75
2023/08/21 08:32:05;;;;;;;12.80;11.60;;;;;;;27.29;63.81;97281.55;108859;1269;22595;-75
2023/08/21 08:34:34;;;;;;;13.10;11.80;;;;;;;27.23;63.51;97282.89;108853;1272;22517;-76
2023/08/21 08:37:02;;;;;;;13.40;12.10;;;;;;;27.22;63.92;97285.60;108829;1271;28430;-76
2023/08/21 08:39:30;;;;;;;11.50;9.80;;;;;;;27.26;64.03;97286.88;108845;1270;25552;-75
2023/08/21 08:42:03;;;;;;;11.80;10.70;;;;;;;27.24;63.54;97284.61;108839;1269;22533;-75
2023/08/21 08:44:35;;;;;;;12.50;10.70;;;;;;;27.18;63.64;97284.09;108858;1264;22576;-75
2023/08/21 08:47:04;;;;;;;11.20;10.20;;;;;;;27.18;63.70;97287.11;108780;1266;35641;-75
2023/08/21 08:49:32;;;;;;;;;;;;;;;27.13;63.47;97285.48;108842;1264;24270;-76
2023/08/21 08:52:02;;;;;;;12.00;10.90;;;;;;;27.16;64.29;97288.16;108804;1272;23299;-76
2023/08/21 08:54:31;;;;;;;12.30;11.20;;;;;;;27.24;64.75;97287.19;108849;1271;22553;-76
2023/08/21 08:57:00;;;;;;;10.10;9.20;;;;;;;27.47;65.31;97291.50;108750;1272;25889;-75
2023/08/21 08:59:31;;;;;;;11.00;9.90;;;;;;;27.83;63.35;97291.44;108841;1269;22521;-74
2023/08/21 09:01:59;;;;;;;10.60;9.50;;;;;;;28.06;61.95;97292.52;108820;1271;22517;-74
2023/08/21 09:04:28;;;;;;;10.70;9.20;;;;;;;28.05;61.02;97295.55;108858;1272;22729;-75
2023/08/21 09:07:08;;;;;;;12.10;10.10;;;;;;;28.01;61.43;97293.23;108764;1272;22522;-74
2023/08/21 09:09:40;;;;;;;11.10;9.60;;;;;;;28.02;61.80;97296.70;108827;1270;22511;-75
2023/08/21 09:12:15;;;;;;;11.00;9.90;;;;;;;28.00;61.61;97294.55;108684;1266;22511;-76
2023/08/21 09:14:45;;;;;;;10.70;9.60;;;;;;;27.92;61.41;97291.84;108649;1271;25239;-76
2023/08/21 09:17:14;;;;;;;11.00;9.90;;;;;;;27.83;61.34;97295.40;108705;1269;25338;-75
2023/08/21 09:19:43;;;;;;;10.60;9.60;;;;;;;27.72;61.31;97294.52;108820;1272;26454;-75
2023/08/21 09:22:18;;;;;;;11.70;10.50;;;;;;;27.68;62.09;97295.41;108797;1266;22540;-75
2023/08/21 09:25:06;;;;;;;12.50;11.30;;;;;;;27.68;62.64;97297.27;108915;1253;24199;-75
2023/08/21 09:27:36;;;;;;;13.40;12.10;;;;;;;27.73;63.50;97294.46;108851;1271;22923;-76
2023/08/21 09:30:09;;;;;;;12.40;11.10;;;;;;;27.73;64.42;97300.54;108952;1272;22544;-76
2023/08/21 09:32:55;;;;;;;13.90;12.70;;;;;;;27.72;64.50;97300.82;108946;1264;22533;-76
2023/08/21 09:35:24;;;;;;;13.60;12.20;;;;;;;27.62;64.29;97299.38;109035;1264;22528;-76
2023/08/21 09:37:53;;;;;;;;;;;;;;;27.56;64.85;97296.87;108929;1272;22495;-75
2023/08/21 09:40:22;;;;;;;14.90;11.90;;;;;;;27.52;64.54;97293.96;108820;1272;22537;-76
2023/08/21 09:42:54;;;;;;;14.00;12.60;;;;;;;27.40;64.16;97296.86;108883;1268;22518;-77
2023/08/21 09:45:23;;;;;;;14.10;12.20;;;;;;;27.24;64.46;97298.45;108883;1269;22569;-77
2023/08/21 09:47:53;;;;;;;12.70;11.60;;;;;;;27.26;65.29;97302.99;109265;1272;24219;-77
2023/08/21 09:50:21;;;;;;;13.60;12.40;;;;;;;27.47;66.30;97298.26;109294;1272;22525;-77
2023/08/21 09:52:51;;;;;;;13.10;11.90;;;;;;;27.69;65.92;97293.39;109298;1272;22536;-77
2023/08/21 09:55:20;;;;;;;13.50;12.30;;;;;;;27.70;65.05;97295.89;109384;1268;22732;-78
2023/08/21 09:57:58;;;;;;;14.60;13.30;;;;;;;27.74;65.74;97295.16;109311;1272;24121;-78
2023/08/21 10:00:29;;;;;;;13.80;12.50;;;;;;;27.71;64.91;97296.93;109318;1271;22531;-78
2023/08/21 10:03:02;;;;;;;14.30;13.00;;;;;;;27.62;65.15;97298.84;109250;1271;22518;-78
2023/08/21 10:05:31;;;;;;;14.60;13.10;;;;;;;27.58;65.46;97298.99;109320;1266;22657;-77
2023/08/21 10:08:03;;;;;;;15.30;13.80;;;;;;;27.59;65.85;97297.30;109336;1271;22694;-78
2023/08/21 10:10:33;;;;;;;14.70;13.30;;;;;;;27.60;65.89;97298.04;109333;1269;23865;-78
2023/08/21 10:13:02;;;;;;;14.40;12.90;;;;;;;27.64;66.07;97297.22;109296;1267;23167;-78
2023/08/21 10:15:32;;;;;;;15.20;13.60;;;;;;;27.66;66.13;97296.48;109283;1272;22585;-78
2023/08/21 10:18:19;;;;;;;14.40;13.00;;;;;;;27.68;66.23;97292.99;109360;1270;22536;-78
2023/08/21 10:20:47;;;;;;;16.00;14.40;;;;;;;27.72;66.33;97292.33;109324;1272;22531;-78
2023/08/21 10:23:26;;;;;;;15.80;14.20;;;;;;;27.72;65.96;97292.17;109323;1271;22011;-78
2023/08/21 10:25:59;;;;;;;15.40;13.70;;;;;;;27.68;66.09;97296.19;109312;1271;22603;-78
2023/08/21 10:28:42;;;;;;;15.20;13.60;;;;;;;27.67;66.11;97296.02;109226;1269;22549;-78
2023/08/21 10:31:35;;;;;;;17.10;14.70;;;;;;;27.61;65.47;97293.07;109263;1272;22537;-78
2023/08/21 10:34:05;;;;;;;15.90;14.40;;;;;;;27.56;65.78;97291.74;109272;1253;25406;-78
2023/08/21 10:37:07;;;;;;;14.70;13.30;;;;;;;27.53;65.64;97291.25;109300;1267;23041;-78
2023/08/21 10:39:37;;;;;;;14.50;13.20;;;;;;;27.50;66.10;97290.21;109272;1272;22540;-77
2023/08/21 10:42:14;;;;;;;15.90;14.30;;;;;;;27.47;66.50;97291.90;109205;1272;22596;-78
2023/08/21 10:44:56;;;;;;;16.00;14.40;;;;;;;27.44;66.22;97288.43;109226;1269;22560;-77
2023/08/21 10:47:31;;;;;;;17.30;15.60;;;;;;;27.40;66.40;97289.00;108951;1257;22547;-76
2023/08/21 10:50:02;;;;;;;17.80;15.10;;;;;;;27.34;66.59;97287.38;108898;1267;22532;-76
2023/08/21 10:52:35;;;;;;;18.90;16.70;;;;;;;27.29;66.80;97289.48;108928;1269;25374;-77
2023/08/21 10:55:04;;;;;;;20.70;18.30;;;;;;;27.23;66.87;97288.10;109320;1272;25548;-78
2023/08/21 10:57:34;;;;;;;19.70;17.70;;;;;;;27.13;67.22;97285.79;109271;1272;23753;-74
2023/08/21 11:00:04;;;;;;;;;;;;;;;27.09;67.52;97284.35;108769;1271;22922;-74
2023/08/21 11:02:33;;;;;;;20.30;18.10;;;;;;;27.07;67.76;97282.77;108946;1267;22524;-74
2023/08/21 11:05:02;;;;;;;23.60;20.20;;;;;;;27.09;68.34;97282.87;108801;1272;22541;-76
2023/08/21 11:07:36;;;;;;;23.10;19.90;;;;;;;27.09;68.16;97278.98;108857;1272;22696;-76
2023/08/21 11:10:07;;;;;;;24.90;20.00;;;;;;;27.03;68.06;97276.80;108844;1272;25478;-74
2023/08/21 11:12:35;;;;;;;25.10;20.80;;;;;;;27.00;68.33;97278.85;108896;1269;22707;-73
2023/08/21 11:15:06;;;;;;;24.30;20.00;;;;;;;26.99;68.36;97281.38;108907;1272;22520;-74
2023/08/21 11:17:35;;;;;;;23.10;20.60;;;;;;;26.99;68.85;97280.84;108770;1272;22537;-75
2023/08/21 11:20:12;;;;;;;28.70;19.90;;;;;;;27.02;68.97;97279.90;108907;1264;22518;-75
2023/08/21 11:22:44;;;;;;;22.20;19.80;;;;;;;27.05;68.92;97276.06;108953;1267;22984;-75